createdAt,value
2022-11-13T00:01:44.710Z,7.78
2022-11-13T00:07:05.350Z,7.73
2022-11-13T00:12:28.921Z,7.73
2022-11-13T00:17:49.453Z,7.74
2022-11-13T00:23:09.859Z,7.79
2022-11-13T00:28:30.465Z,7.81
2022-11-13T00:39:34.258Z,7.80
2022-11-13T00:44:54.807Z,7.82
2022-11-13T00:50:15.351Z,7.85
2022-11-13T00:55:35.488Z,7.85
2022-11-13T01:00:55.962Z,7.88
2022-11-13T01:06:18.474Z,7.93
2022-11-13T01:11:38.971Z,7.88
2022-11-13T01:16:59.240Z,7.89
2022-11-13T01:22:19.739Z,7.80
2022-11-13T01:27:40.274Z,7.68
2022-11-13T01:33:00.709Z,7.63
2022-11-13T01:38:21.358Z,7.59
2022-11-13T01:43:42.048Z,7.46
2022-11-13T01:49:11.843Z,7.39
2022-11-13T01:54:33.593Z,7.30
2022-11-13T01:59:56.753Z,7.25
2022-11-13T02:05:17.467Z,7.19
2022-11-13T02:10:38.064Z,7.14
2022-11-13T02:15:58.467Z,7.08
2022-11-13T02:21:18.584Z,7.06
2022-11-13T02:26:39.978Z,7.02
2022-11-13T02:32:00.303Z,6.93
2022-11-13T02:37:20.993Z,6.96
2022-11-13T02:42:41.629Z,6.94
2022-11-13T02:48:01.949Z,6.92
2022-11-13T02:53:22.067Z,6.94
2022-11-13T02:58:42.590Z,6.98
2022-11-13T03:04:02.866Z,7.00
2022-11-13T03:09:23.456Z,7.04
2022-11-13T03:14:43.990Z,7.07
2022-11-13T03:20:05.007Z,7.07
2022-11-13T03:25:25.485Z,7.05
2022-11-13T03:30:47.300Z,7.02
2022-11-13T03:36:07.730Z,6.99
2022-11-13T03:41:28.346Z,6.99
2022-11-13T03:46:48.650Z,7.00
2022-11-13T03:52:09.197Z,7.07
2022-11-13T03:57:29.442Z,7.04
2022-11-13T04:02:50.000Z,7.01
2022-11-13T04:08:10.476Z,7.01
2022-11-13T04:13:30.804Z,7.03
2022-11-13T04:18:51.519Z,7.00
2022-11-13T04:24:12.103Z,6.96
2022-11-13T04:29:32.564Z,6.96
2022-11-13T04:34:53.224Z,6.90
2022-11-13T04:40:13.565Z,6.85
2022-11-13T04:45:33.934Z,6.84
2022-11-13T04:50:54.378Z,6.85
2022-11-13T04:56:14.763Z,6.85
2022-11-13T05:01:36.291Z,6.89
2022-11-13T05:06:56.997Z,6.93
2022-11-13T05:12:17.300Z,6.93
2022-11-13T05:17:37.711Z,6.98
2022-11-13T05:22:58.129Z,7.02
2022-11-13T05:28:18.920Z,7.10
2022-11-13T05:33:39.950Z,7.17
2022-11-13T05:39:00.525Z,7.22
2022-11-13T05:44:21.033Z,7.24
2022-11-13T05:49:41.177Z,7.31
2022-11-13T05:55:01.697Z,7.38
2022-11-13T06:00:22.251Z,7.44
2022-11-13T06:05:42.847Z,7.51
2022-11-13T06:11:05.127Z,7.55
2022-11-13T06:16:26.953Z,7.61
2022-11-13T06:21:47.571Z,7.67
2022-11-13T06:27:08.073Z,7.72
2022-11-13T06:32:28.474Z,7.79
2022-11-13T06:37:48.705Z,7.86
2022-11-13T06:43:09.305Z,7.78
2022-11-13T06:48:29.840Z,7.79
2022-11-13T06:53:51.169Z,7.84
2022-11-13T06:59:11.734Z,7.94
2022-11-13T07:04:32.161Z,8.03
2022-11-13T07:09:52.490Z,8.15
2022-11-13T07:15:12.891Z,8.23
2022-11-13T07:20:33.692Z,8.37
2022-11-13T07:25:55.418Z,8.52
2022-11-13T07:31:17.095Z,8.58
2022-11-13T07:36:37.597Z,8.70
2022-11-13T07:41:57.804Z,8.76
2022-11-13T07:47:18.203Z,8.89
2022-11-13T07:52:38.920Z,8.96
2022-11-13T07:57:59.866Z,9.05
2022-11-13T08:03:20.323Z,9.19
2022-11-13T08:08:40.599Z,9.25
2022-11-13T08:14:01.451Z,9.28
2022-11-13T08:19:21.549Z,9.41
2022-11-13T08:24:42.035Z,9.53
2022-11-13T08:30:02.636Z,9.68
2022-11-13T08:35:29.002Z,9.70
2022-11-13T08:40:49.895Z,9.79
2022-11-13T08:46:10.640Z,9.89
2022-11-13T08:51:31.098Z,9.98
2022-11-13T08:56:56.564Z,10.10
2022-11-13T09:02:18.462Z,10.23
2022-11-13T09:07:39.082Z,10.21
2022-11-13T09:13:01.973Z,10.28
2022-11-13T09:18:22.411Z,10.42
2022-11-13T09:23:42.939Z,10.59
2022-11-13T09:29:03.828Z,10.75
2022-11-13T09:34:25.522Z,10.94
2022-11-13T09:39:45.995Z,10.93
2022-11-13T09:45:08.180Z,10.91
2022-11-13T09:50:31.344Z,10.93
2022-11-13T09:55:58.134Z,10.98
2022-11-13T10:01:23.920Z,11.10
2022-11-13T10:06:49.664Z,11.23
2022-11-13T10:12:14.073Z,11.33
2022-11-13T10:17:39.925Z,11.46
2022-11-13T10:23:00.607Z,11.55
2022-11-13T10:28:49.650Z,11.64
2022-11-13T10:34:06.832Z,11.70
2022-11-13T10:39:27.543Z,11.75
2022-11-13T10:44:56.143Z,11.85
2022-11-13T10:50:24.909Z,11.93
2022-11-13T10:55:45.503Z,12.09
2022-11-13T11:01:16.393Z,12.22
2022-11-13T11:12:27.164Z,12.41
2022-11-13T11:17:54.125Z,12.50
2022-11-13T11:23:33.362Z,12.53
2022-11-13T11:29:03.366Z,12.65
2022-11-13T11:34:33.941Z,12.76
2022-11-13T11:39:58.355Z,12.82
2022-11-13T11:45:24.673Z,12.89
2022-11-13T11:50:46.541Z,13.04
2022-11-13T11:56:12.837Z,13.14
2022-11-13T12:01:53.365Z,13.18
2022-11-13T12:07:22.670Z,13.22
2022-11-13T12:12:45.804Z,13.30
2022-11-13T12:18:18.323Z,13.42
2022-11-13T12:23:53.686Z,13.53
2022-11-13T12:29:17.251Z,13.59
2022-11-13T12:34:41.162Z,13.70
2022-11-13T12:40:06.664Z,13.77
2022-11-13T12:45:39.113Z,13.81
2022-11-13T12:51:00.629Z,13.85
2022-11-13T12:56:24.281Z,13.91
2022-11-13T13:01:47.693Z,13.97
2022-11-13T13:07:11.203Z,13.96
2022-11-13T13:12:31.931Z,13.99
2022-11-13T13:18:12.804Z,13.97
2022-11-13T13:23:33.079Z,13.98
2022-11-13T13:28:54.696Z,13.97
2022-11-13T13:34:34.671Z,14.02
2022-11-13T13:40:02.892Z,14.01
2022-11-13T13:45:27.594Z,13.96
2022-11-13T13:50:49.660Z,13.86
2022-11-13T13:56:11.783Z,13.76
2022-11-13T14:01:33.540Z,13.54
2022-11-13T14:06:58.165Z,13.01
2022-11-13T14:12:20.192Z,12.46
2022-11-13T14:17:40.705Z,11.98
2022-11-13T14:23:01.613Z,11.49
2022-11-13T14:28:23.995Z,11.13
2022-11-13T14:33:45.742Z,10.83
2022-11-13T14:39:06.487Z,10.48
2022-11-13T14:44:31.912Z,10.11
2022-11-13T14:49:53.378Z,9.85
2022-11-13T14:55:21.137Z,9.55
2022-11-13T15:00:41.350Z,9.33
2022-11-13T15:06:01.919Z,9.13
2022-11-13T15:11:23.648Z,9.02
2022-11-13T15:16:44.763Z,8.88
2022-11-13T15:27:49.920Z,8.61
2022-11-13T15:33:13.077Z,8.46
2022-11-13T15:38:33.614Z,8.32
2022-11-13T15:43:55.521Z,8.19
2022-11-13T15:49:15.992Z,8.03
2022-11-13T15:54:38.021Z,7.85
2022-11-13T15:59:58.791Z,7.62
2022-11-13T16:05:19.439Z,7.48
2022-11-13T16:10:39.832Z,7.40
2022-11-13T16:16:01.116Z,7.33
2022-11-13T16:21:22.099Z,7.28
2022-11-13T16:26:46.140Z,7.35
2022-11-13T16:32:12.474Z,7.41
2022-11-13T16:37:32.904Z,7.49
2022-11-13T16:42:54.017Z,7.49
2022-11-13T16:48:15.736Z,7.55
2022-11-13T16:53:35.915Z,7.58
2022-11-13T16:58:56.885Z,7.66
2022-11-13T17:04:17.168Z,7.70
2022-11-13T17:09:39.310Z,7.77
2022-11-13T17:14:59.976Z,7.82
2022-11-13T17:20:20.190Z,7.85
2022-11-13T17:25:40.316Z,7.85
2022-11-13T17:31:08.917Z,7.81
2022-11-13T17:36:29.369Z,7.74
2022-11-13T17:41:50.691Z,7.66
2022-11-13T17:47:11.092Z,7.59
2022-11-13T17:52:31.599Z,7.60
2022-11-13T17:57:52.037Z,7.55
2022-11-13T18:03:12.369Z,7.53
2022-11-13T18:08:33.410Z,7.52
2022-11-13T18:13:53.891Z,7.59
2022-11-13T18:19:14.298Z,7.60
2022-11-13T18:24:34.677Z,7.63
2022-11-13T18:29:55.461Z,7.68
2022-11-13T18:35:15.866Z,7.66
2022-11-13T18:40:36.896Z,7.67
2022-11-13T18:45:57.873Z,7.65
2022-11-13T18:51:20.441Z,7.64
2022-11-13T18:56:41.259Z,7.60
2022-11-13T19:02:01.964Z,7.62
2022-11-13T19:07:22.537Z,7.58
2022-11-13T19:12:43.052Z,7.58
2022-11-13T19:18:03.950Z,7.56
2022-11-13T19:23:24.067Z,7.61
2022-11-13T19:28:51.407Z,7.57
2022-11-13T19:34:12.418Z,7.55
2022-11-13T19:39:32.975Z,7.58
2022-11-13T19:44:53.306Z,7.59
2022-11-13T19:50:13.679Z,7.61
2022-11-13T19:55:34.915Z,7.62
2022-11-13T20:00:56.109Z,7.60
2022-11-13T20:06:17.402Z,7.64
2022-11-13T20:11:37.542Z,7.69
2022-11-13T20:16:57.950Z,7.67
2022-11-13T20:22:18.267Z,7.69
2022-11-13T20:27:41.829Z,7.69
2022-11-13T20:33:04.967Z,7.71
2022-11-13T20:38:25.401Z,7.72
2022-11-13T20:43:47.497Z,7.74
2022-11-13T20:49:07.993Z,7.77
2022-11-13T20:54:28.584Z,7.80
2022-11-13T20:59:48.876Z,7.81
2022-11-13T21:05:09.445Z,7.80
2022-11-13T21:10:29.925Z,7.67
2022-11-13T21:15:50.334Z,7.62
2022-11-13T21:21:12.135Z,7.56
2022-11-13T21:26:32.897Z,7.56
2022-11-13T21:31:53.453Z,7.52
2022-11-13T21:37:14.694Z,7.42
2022-11-13T21:42:34.992Z,7.36
2022-11-13T21:47:55.588Z,7.30
2022-11-13T21:53:16.110Z,7.25
2022-11-13T21:58:37.476Z,7.15
2022-11-13T22:03:57.912Z,7.14
2022-11-13T22:09:25.524Z,7.10
2022-11-13T22:14:53.330Z,7.13
2022-11-13T22:20:14.271Z,7.10
2022-11-13T22:25:34.743Z,7.15
2022-11-13T22:30:55.740Z,7.25
2022-11-13T22:36:17.535Z,7.34
2022-11-13T22:41:38.082Z,7.35
2022-11-13T22:46:58.546Z,7.36
2022-11-13T22:52:18.984Z,7.40
2022-11-13T22:57:39.384Z,7.40
2022-11-13T23:03:00.770Z,7.44
2022-11-13T23:08:21.352Z,7.47
2022-11-13T23:13:45.837Z,7.43
2022-11-13T23:19:06.246Z,7.44
2022-11-13T23:24:26.585Z,7.41
2022-11-13T23:29:50.068Z,7.35
2022-11-13T23:35:10.890Z,7.35
2022-11-13T23:40:31.592Z,7.34
2022-11-13T23:45:52.419Z,7.39
2022-11-13T23:51:12.886Z,7.48
2022-11-13T23:56:33.209Z,7.52
